Time,TemperatureF,DewpointF,PressureIn,WindDirection,WindDirectionDegrees,WindSpeedMPH,WindSpeedGustMPH,Humidity,HourlyPrecipIn,Conditions,Clouds,dailyrainin,SoftwareType,DateUTC
2013-07-23 00:02:00,65.4,62.7,29.77,WSW,248,0.0,1.0,91,0.00,,,0.00,WeatherCatV1.20B785,2013-07-22 23:02:00,
2013-07-23 00:07:00,65.5,62.5,29.77,WSW,248,0.0,0.0,90,0.00,,,0.00,WeatherCatV1.20B785,2013-07-22 23:07:00,
2013-07-23 00:12:00,65.6,62.6,29.77,WSW,248,0.0,1.0,90,0.00,,,0.00,WeatherCatV1.20B785,2013-07-22 23:12:00,
2013-07-23 00:17:00,65.5,62.5,29.77,WSW,248,0.0,0.0,90,0.00,,,0.00,WeatherCatV1.20B785,2013-07-22 23:17:00,
2013-07-23 00:22:00,65.5,62.5,29.76,WSW,247,0.0,0.0,90,0.00,,,0.00,WeatherCatV1.20B785,2013-07-22 23:22:00,
2013-07-23 00:27:00,65.4,62.4,29.77,WSW,248,0.0,0.0,90,0.00,,,0.00,WeatherCatV1.20B785,2013-07-22 23:27:00,
2013-07-23 00:32:00,65.2,62.2,29.76,WSW,248,0.0,0.0,90,0.00,,,0.00,WeatherCatV1.20B785,2013-07-22 23:32:00,
2013-07-23 00:37:00,65.3,62.6,29.76,SE,136,0.0,0.0,91,0.00,,,0.00,WeatherCatV1.20B785,2013-07-22 23:37:00,
2013-07-23 00:42:00,65.4,62.7,29.76,SE,126,0.0,1.0,91,0.00,,,0.00,WeatherCatV1.20B785,2013-07-22 23:42:00,
2013-07-23 00:47:00,65.6,62.6,29.76,SE,132,1.0,2.0,90,0.00,,,0.00,WeatherCatV1.20B785,2013-07-22 23:47:00,
2013-07-23 00:52:00,65.6,62.6,29.76,SE,124,0.0,2.0,90,0.00,,,0.00,WeatherCatV1.20B785,2013-07-22 23:52:00,
2013-07-23 00:57:00,65.7,62.7,29.76,SE,131,0.0,1.0,90,0.00,,,0.00,WeatherCatV1.20B785,2013-07-22 23:57:00,
2013-07-23 01:02:00,65.7,62.7,29.76,SE,137,0.0,1.0,90,0.00,,,0.00,WeatherCatV1.20B785,2013-07-23 00:02:00,
2013-07-23 01:07:00,65.7,62.7,29.76,ESE,121,1.0,1.0,90,0.00,,,0.00,WeatherCatV1.20B785,2013-07-23 00:07:00,
2013-07-23 01:12:00,65.7,62.7,29.76,ESE,121,2.0,3.0,90,0.00,,,0.00,WeatherCatV1.20B785,2013-07-23 00:12:00,
2013-07-23 01:17:00,65.7,63.0,29.76,ESE,108,3.0,3.0,91,0.00,,,0.00,WeatherCatV1.20B785,2013-07-23 00:17:00,
2013-07-23 01:22:00,65.6,62.9,29.76,ESE,121,1.0,2.0,91,0.00,,,0.00,WeatherCatV1.20B785,2013-07-23 00:22:00,
2013-07-23 01:27:00,65.5,62.5,29.76,SE,129,1.0,2.0,90,0.00,,,0.00,WeatherCatV1.20B785,2013-07-23 00:27:00,
2013-07-23 01:32:00,65.5,62.5,29.76,ESE,105,2.0,4.0,90,0.00,,,0.00,WeatherCatV1.20B785,2013-07-23 00:32:00,
2013-07-23 01:37:00,65.5,62.2,29.76,ESE,110,3.0,5.0,89,0.00,,,0.00,WeatherCatV1.20B785,2013-07-23 00:37:00,
2013-07-23 01:42:00,65.4,62.1,29.76,SSE,156,6.0,6.0,89,0.00,,,0.00,WeatherCatV1.20B785,2013-07-23 00:42:00,
2013-07-23 01:47:00,65.2,61.9,29.76,SSE,152,4.0,4.0,89,0.00,,,0.00,WeatherCatV1.20B785,2013-07-23 00:47:00,
2013-07-23 01:52:00,65.2,61.9,29.76,SE,135,3.0,6.0,89,0.00,,,0.00,WeatherCatV1.20B785,2013-07-23 00:52:00,
2013-07-23 01:57:00,65.0,61.7,29.76,ESE,121,3.0,7.0,89,0.00,,,0.00,WeatherCatV1.20B785,2013-07-23 00:57:00,
2013-07-23 02:02:00,65.0,61.7,29.76,ESE,121,4.0,7.0,89,0.00,,,0.00,WeatherCatV1.20B785,2013-07-23 01:02:00,
2013-07-23 02:07:00,64.8,61.5,29.76,SSE,160,4.0,7.0,89,0.00,,,0.00,WeatherCatV1.20B785,2013-07-23 01:07:00,
2013-07-23 02:12:00,64.7,61.4,29.76,SSE,165,6.0,10.0,89,0.00,,,0.00,WeatherCatV1.20B785,2013-07-23 01:12:00,
2013-07-23 02:17:00,64.6,61.3,29.76,South,190,8.0,9.0,89,0.00,,,0.00,WeatherCatV1.20B785,2013-07-23 01:17:00,
2013-07-23 02:22:00,64.6,61.3,29.76,SSE,150,6.0,9.0,89,0.00,,,0.00,WeatherCatV1.20B785,2013-07-23 01:22:00,
2013-07-23 02:27:00,64.5,61.2,29.76,SE,146,3.0,8.0,89,0.00,,,0.00,WeatherCatV1.20B785,2013-07-23 01:27:00,
2013-07-23 02:32:00,64.4,61.1,29.76,ESE,121,3.0,7.0,89,0.00,,,0.00,WeatherCatV1.20B785,2013-07-23 01:32:00,
2013-07-23 02:37:00,64.4,61.1,29.75,SSE,147,4.0,8.0,89,0.00,,,0.00,WeatherCatV1.20B785,2013-07-23 01:37:00,
2013-07-23 02:42:00,64.2,60.9,29.76,South,169,2.0,5.0,89,0.00,,,0.00,WeatherCatV1.20B785,2013-07-23 01:42:00,
2013-07-23 02:47:00,64.2,60.9,29.75,ESE,110,8.0,8.0,89,0.00,,,0.00,WeatherCatV1.20B785,2013-07-23 01:47:00,
2013-07-23 02:52:00,64.1,60.8,29.75,SSE,156,7.0,9.0,89,0.00,,,0.00,WeatherCatV1.20B785,2013-07-23 01:52:00,
2013-07-23 02:57:00,64.0,61.0,29.75,SSE,153,5.0,6.0,90,0.00,,,0.00,WeatherCatV1.20B785,2013-07-23 01:57:00,
2013-07-23 03:02:00,63.8,60.8,29.75,South,176,6.0,7.0,90,0.00,,,0.00,WeatherCatV1.20B785,2013-07-23 02:02:00,
2013-07-23 03:07:00,63.8,61.1,29.75,SSE,168,4.0,5.0,91,0.00,,,0.00,WeatherCatV1.20B785,2013-07-23 02:07:00,
2013-07-23 03:12:00,63.7,61.0,29.75,SSW,197,3.0,7.0,91,0.00,,,0.00,WeatherCatV1.20B785,2013-07-23 02:12:00,
2013-07-23 03:17:00,63.6,60.9,29.74,SW,214,3.0,8.0,91,0.00,,,0.00,WeatherCatV1.20B785,2013-07-23 02:17:00,
2013-07-23 03:22:00,63.5,60.8,29.75,SSE,162,4.0,6.0,91,0.00,,,0.00,WeatherCatV1.20B785,2013-07-23 02:22:00,
2013-07-23 03:27:00,63.5,60.8,29.75,SSE,154,3.0,6.0,91,0.00,,,0.00,WeatherCatV1.20B785,2013-07-23 02:27:00,
2013-07-23 03:32:00,63.4,60.7,29.75,South,176,3.0,7.0,91,0.00,,,0.00,WeatherCatV1.20B785,2013-07-23 02:32:00,
2013-07-23 03:37:00,63.4,60.7,29.75,SE,139,8.0,8.0,91,0.00,,,0.00,WeatherCatV1.20B785,2013-07-23 02:37:00,
2013-07-23 03:42:00,63.3,60.6,29.75,SSE,167,4.0,5.0,91,0.00,,,0.00,WeatherCatV1.20B785,2013-07-23 02:42:00,
2013-07-23 03:47:00,63.3,60.6,29.75,SSE,155,7.0,7.0,91,0.00,,,0.00,WeatherCatV1.20B785,2013-07-23 02:47:00,
2013-07-23 03:52:00,63.4,60.7,29.75,South,172,3.0,9.0,91,0.00,,,0.00,WeatherCatV1.20B785,2013-07-23 02:52:00,
2013-07-23 03:57:00,63.3,60.6,29.74,SSE,167,2.0,6.0,91,0.00,,,0.00,WeatherCatV1.20B785,2013-07-23 02:57:00,
2013-07-23 04:02:00,63.3,60.6,29.74,South,180,3.0,5.0,91,0.00,,,0.00,WeatherCatV1.20B785,2013-07-23 03:02:00,
2013-07-23 04:07:00,63.3,60.6,29.74,SSW,200,2.0,2.0,91,0.00,,,0.00,WeatherCatV1.20B785,2013-07-23 03:07:00,
2013-07-23 04:12:00,63.2,60.8,29.74,SSE,153,4.0,5.0,92,0.00,,,0.00,WeatherCatV1.20B785,2013-07-23 03:12:00,
2013-07-23 04:17:00,63.3,60.9,29.74,SSW,193,2.0,4.0,92,0.00,,,0.00,WeatherCatV1.20B785,2013-07-23 03:17:00,
2013-07-23 04:22:00,63.3,60.9,29.74,SSW,193,3.0,3.0,92,0.00,,,0.00,WeatherCatV1.20B785,2013-07-23 03:22:00,
2013-07-23 04:27:00,63.3,60.9,29.73,SSW,201,3.0,4.0,92,0.00,,,0.00,WeatherCatV1.20B785,2013-07-23 03:27:00,
2013-07-23 04:32:00,63.2,60.8,29.73,South,174,2.0,4.0,92,0.00,,,0.00,WeatherCatV1.20B785,2013-07-23 03:32:00,
2013-07-23 04:37:00,63.2,60.8,29.73,SSE,155,2.0,2.0,92,0.00,,,0.00,WeatherCatV1.20B785,2013-07-23 03:37:00,
2013-07-23 04:42:00,63.3,60.9,29.74,South,180,2.0,4.0,92,0.00,,,0.00,WeatherCatV1.20B785,2013-07-23 03:42:00,
2013-07-23 04:47:00,63.3,60.9,29.74,South,170,4.0,6.0,92,0.00,,,0.00,WeatherCatV1.20B785,2013-07-23 03:47:00,
2013-07-23 04:52:00,63.3,60.9,29.74,SW,224,3.0,6.0,92,0.00,,,0.00,WeatherCatV1.20B785,2013-07-23 03:52:00,
2013-07-23 04:57:00,63.3,60.9,29.73,South,180,4.0,4.0,92,0.00,,,0.00,WeatherCatV1.20B785,2013-07-23 03:57:00,
2013-07-23 05:01:00,63.2,60.8,29.73,SSE,158,4.0,6.0,92,0.00,,,0.00,WeatherCatV1.20B785,2013-07-23 04:01:00,
2013-07-23 05:06:00,63.2,61.1,29.73,South,170,5.0,8.0,93,0.00,,,0.00,WeatherCatV1.20B785,2013-07-23 04:06:00,
2013-07-23 05:11:00,63.2,61.1,29.73,SSE,148,3.0,6.0,93,0.00,,,0.00,WeatherCatV1.20B785,2013-07-23 04:11:00,
2013-07-23 05:16:00,63.1,61.0,29.73,SSE,168,6.0,9.0,93,0.00,,,0.00,WeatherCatV1.20B785,2013-07-23 04:16:00,
2013-07-23 05:21:00,63.2,61.1,29.73,SSE,153,5.0,6.0,93,0.00,,,0.00,WeatherCatV1.20B785,2013-07-23 04:21:00,
2013-07-23 05:26:00,63.0,60.9,29.73,SE,139,2.0,5.0,93,0.00,,,0.00,WeatherCatV1.20B785,2013-07-23 04:26:00,
2013-07-23 05:31:00,63.1,61.0,29.73,ESE,107,3.0,3.0,93,0.00,,,0.00,WeatherCatV1.20B785,2013-07-23 04:31:00,
2013-07-23 05:36:00,63.1,61.0,29.73,SE,130,2.0,5.0,93,0.00,,,0.00,WeatherCatV1.20B785,2013-07-23 04:36:00,
2013-07-23 05:41:00,63.0,60.9,29.73,SSE,153,3.0,4.0,93,0.00,,,0.00,WeatherCatV1.20B785,2013-07-23 04:41:00,
2013-07-23 05:46:00,63.0,60.9,29.73,SSE,163,5.0,5.0,93,0.00,,,0.00,WeatherCatV1.20B785,2013-07-23 04:46:00,
2013-07-23 05:51:00,63.0,60.9,29.73,ESE,121,5.0,8.0,93,0.00,,,0.00,WeatherCatV1.20B785,2013-07-23 04:51:00,
2013-07-23 05:56:00,62.8,61.0,29.73,South,173,5.0,6.0,94,0.00,,,0.00,WeatherCatV1.20B785,2013-07-23 04:56:00,
2013-07-23 06:01:00,62.8,61.0,29.73,South,176,5.0,6.0,94,0.00,,,0.00,WeatherCatV1.20B785,2013-07-23 05:01:00,
2013-07-23 06:06:00,62.8,61.0,29.73,SE,139,4.0,6.0,94,0.00,,,0.00,WeatherCatV1.20B785,2013-07-23 05:06:00,
2013-07-23 06:11:00,62.7,60.9,29.72,SSE,148,3.0,4.0,94,0.00,,,0.00,WeatherCatV1.20B785,2013-07-23 05:11:00,
2013-07-23 06:16:00,62.7,60.9,29.72,South,187,2.0,3.0,94,0.00,,,0.00,WeatherCatV1.20B785,2013-07-23 05:16:00,
2013-07-23 06:21:00,62.7,60.9,29.72,South,181,1.0,2.0,94,0.00,,,0.00,WeatherCatV1.20B785,2013-07-23 05:21:00,
2013-07-23 06:26:00,62.8,61.0,29.72,SSW,201,3.0,5.0,94,0.00,,,0.00,WeatherCatV1.20B785,2013-07-23 05:26:00,
2013-07-23 06:31:00,62.8,61.0,29.72,SSW,193,2.0,4.0,94,0.00,,,0.00,WeatherCatV1.20B785,2013-07-23 05:31:00,
2013-07-23 06:36:00,62.8,61.0,29.72,SSE,156,2.0,3.0,94,0.00,,,0.00,WeatherCatV1.20B785,2013-07-23 05:36:00,
2013-07-23 06:41:00,62.8,60.7,29.72,SSE,160,4.0,4.0,93,0.00,,,0.00,WeatherCatV1.20B785,2013-07-23 05:41:00,
2013-07-23 06:46:00,62.8,60.7,29.72,South,184,3.0,4.0,93,0.00,,,0.00,WeatherCatV1.20B785,2013-07-23 05:46:00,
2013-07-23 06:51:00,62.8,60.4,29.72,SSW,208,2.0,4.0,92,0.00,,,0.00,WeatherCatV1.20B785,2013-07-23 05:51:00,
2013-07-23 06:56:00,62.9,60.5,29.72,SW,217,2.0,3.0,92,0.00,,,0.00,WeatherCatV1.20B785,2013-07-23 05:56:00,
2013-07-23 07:01:00,62.9,60.5,29.73,SSW,208,4.0,5.0,92,0.00,,,0.00,WeatherCatV1.20B785,2013-07-23 06:01:00,
2013-07-23 07:06:00,62.8,60.4,29.73,SW,235,3.0,6.0,92,0.00,,,0.00,WeatherCatV1.20B785,2013-07-23 06:06:00,
2013-07-23 07:11:00,62.8,60.4,29.73,SSW,210,2.0,6.0,92,0.00,,,0.00,WeatherCatV1.20B785,2013-07-23 06:11:00,
2013-07-23 07:16:00,62.9,60.5,29.73,SW,222,2.0,3.0,92,0.00,,,0.00,WeatherCatV1.20B785,2013-07-23 06:16:00,
2013-07-23 07:21:00,62.9,60.5,29.73,SSW,205,2.0,4.0,92,0.00,,,0.00,WeatherCatV1.20B785,2013-07-23 06:21:00,
2013-07-23 07:26:00,62.9,60.5,29.73,SW,219,5.0,5.0,92,0.00,,,0.00,WeatherCatV1.20B785,2013-07-23 06:26:00,
2013-07-23 07:31:00,62.9,60.2,29.73,SSW,210,2.0,5.0,91,0.00,,,0.00,WeatherCatV1.20B785,2013-07-23 06:31:00,
2013-07-23 07:36:00,62.8,60.1,29.73,SW,219,3.0,4.0,91,0.00,,,0.00,WeatherCatV1.20B785,2013-07-23 06:36:00,
2013-07-23 07:41:00,62.7,59.7,29.73,SW,233,2.0,4.0,90,0.00,,,0.00,WeatherCatV1.20B785,2013-07-23 06:41:00,
2013-07-23 07:46:00,62.6,59.6,29.73,SW,217,2.0,4.0,90,0.00,,,0.00,WeatherCatV1.20B785,2013-07-23 06:46:00,
2013-07-23 07:51:00,62.5,59.2,29.73,SW,233,1.0,3.0,89,0.00,,,0.00,WeatherCatV1.20B785,2013-07-23 06:51:00,
2013-07-23 07:56:00,62.5,59.5,29.73,SW,224,2.0,3.0,90,0.00,,,0.00,WeatherCatV1.20B785,2013-07-23 06:56:00,
2013-07-23 08:01:00,62.4,59.4,29.72,West,273,1.0,2.0,90,0.00,,,0.01,WeatherCatV1.20B785,2013-07-23 07:01:00,
2013-07-23 08:06:00,62.3,59.3,29.72,SSW,210,2.0,3.0,90,0.00,,,0.01,WeatherCatV1.20B785,2013-07-23 07:06:00,
2013-07-23 08:11:00,62.2,59.2,29.72,WSW,240,4.0,5.0,90,0.00,,,0.01,WeatherCatV1.20B785,2013-07-23 07:11:00,
2013-07-23 08:16:00,62.2,59.2,29.73,WSW,240,4.0,4.0,90,0.00,,,0.01,WeatherCatV1.20B785,2013-07-23 07:16:00,
2013-07-23 08:21:00,62.2,59.2,29.73,SSW,205,2.0,2.0,90,0.00,,,0.01,WeatherCatV1.20B785,2013-07-23 07:21:00,
2013-07-23 08:26:00,62.2,59.2,29.73,SW,214,1.0,2.0,90,0.00,,,0.01,WeatherCatV1.20B785,2013-07-23 07:26:00,
2013-07-23 08:31:00,62.3,59.0,29.73,SE,136,1.0,1.0,89,0.00,,,0.01,WeatherCatV1.20B785,2013-07-23 07:31:00,
2013-07-23 08:36:00,62.3,59.0,29.72,SSE,156,0.0,1.0,89,0.00,,,0.01,WeatherCatV1.20B785,2013-07-23 07:36:00,
2013-07-23 08:41:00,62.6,59.6,29.72,SSE,157,0.0,0.0,90,0.00,,,0.01,WeatherCatV1.20B785,2013-07-23 07:41:00,
2013-07-23 08:46:00,62.9,59.9,29.72,SSE,156,0.0,0.0,90,0.00,,,0.01,WeatherCatV1.20B785,2013-07-23 07:46:00,
2013-07-23 08:51:00,63.2,60.2,29.72,SSW,198,0.0,0.0,90,0.00,,,0.01,WeatherCatV1.20B785,2013-07-23 07:51:00,
2013-07-23 08:56:00,63.7,60.7,29.72,SSW,198,0.0,0.0,90,0.00,,,0.01,WeatherCatV1.20B785,2013-07-23 07:56:00,
2013-07-23 09:01:00,64.0,61.0,29.72,SE,141,1.0,2.0,90,0.00,,,0.01,WeatherCatV1.20B785,2013-07-23 08:01:00,
2013-07-23 09:06:00,64.2,61.2,29.72,East,101,2.0,2.0,90,0.00,,,0.01,WeatherCatV1.20B785,2013-07-23 08:06:00,
2013-07-23 09:11:00,64.1,60.8,29.72,SE,134,4.0,4.0,89,0.00,,,0.01,WeatherCatV1.20B785,2013-07-23 08:11:00,
2013-07-23 09:16:00,64.2,61.2,29.72,SE,141,1.0,2.0,90,0.00,,,0.01,WeatherCatV1.20B785,2013-07-23 08:16:00,
2013-07-23 09:21:00,64.4,61.4,29.72,ESE,102,4.0,5.0,90,0.00,,,0.01,WeatherCatV1.20B785,2013-07-23 08:21:00,
2013-07-23 09:26:00,64.3,61.3,29.72,SE,135,2.0,3.0,90,0.00,,,0.01,WeatherCatV1.20B785,2013-07-23 08:26:00,
2013-07-23 09:31:00,64.3,61.3,29.72,SE,133,2.0,5.0,90,0.00,,,0.01,WeatherCatV1.20B785,2013-07-23 08:31:00,
2013-07-23 09:36:00,64.4,61.4,29.72,ESE,120,3.0,3.0,90,0.00,,,0.01,WeatherCatV1.20B785,2013-07-23 08:36:00,
2013-07-23 09:41:00,64.4,61.4,29.72,SE,143,2.0,5.0,90,0.00,,,0.01,WeatherCatV1.20B785,2013-07-23 08:41:00,
2013-07-23 09:46:00,64.5,61.5,29.72,SE,140,1.0,6.0,90,0.00,,,0.01,WeatherCatV1.20B785,2013-07-23 08:46:00,
2013-07-23 09:51:00,64.6,61.9,29.72,SE,136,5.0,6.0,91,0.00,,,0.01,WeatherCatV1.20B785,2013-07-23 08:51:00,
2013-07-23 09:56:00,64.5,61.8,29.72,SSE,149,3.0,5.0,91,0.00,,,0.01,WeatherCatV1.20B785,2013-07-23 08:56:00,
2013-07-23 10:01:00,64.5,61.8,29.72,ESE,105,1.0,2.0,91,0.00,,,0.01,WeatherCatV1.20B785,2013-07-23 09:01:00,
2013-07-23 10:06:00,64.6,61.9,29.72,ESE,123,4.0,6.0,91,0.00,,,0.01,WeatherCatV1.20B785,2013-07-23 09:06:00,
2013-07-23 10:11:00,64.6,61.9,29.72,East,88,4.0,4.0,91,0.00,,,0.01,WeatherCatV1.20B785,2013-07-23 09:11:00,
2013-07-23 10:16:00,64.6,61.3,29.72,SE,139,4.0,5.0,89,0.00,,,0.01,WeatherCatV1.20B785,2013-07-23 09:16:00,
2013-07-23 10:21:00,64.5,61.2,29.72,SE,128,3.0,5.0,89,0.00,,,0.01,WeatherCatV1.20B785,2013-07-23 09:21:00,
2013-07-23 10:26:00,64.5,61.2,29.72,SE,128,2.0,4.0,89,0.00,,,0.01,WeatherCatV1.20B785,2013-07-23 09:26:00,
2013-07-23 10:31:00,64.4,61.1,29.72,SE,143,3.0,4.0,89,0.00,,,0.01,WeatherCatV1.20B785,2013-07-23 09:31:00,
2013-07-23 10:36:00,64.5,61.2,29.72,ESE,116,3.0,5.0,89,0.00,,,0.01,WeatherCatV1.20B785,2013-07-23 09:36:00,
2013-07-23 10:41:00,64.6,61.3,29.72,SSE,151,4.0,5.0,89,0.00,,,0.01,WeatherCatV1.20B785,2013-07-23 09:41:00,
2013-07-23 10:46:00,64.8,61.5,29.72,SE,132,5.0,7.0,89,0.00,,,0.01,WeatherCatV1.20B785,2013-07-23 09:46:00,
2013-07-23 10:51:00,64.9,61.2,29.72,South,181,4.0,5.0,88,0.00,,,0.01,WeatherCatV1.20B785,2013-07-23 09:51:00,
2013-07-23 10:56:00,64.8,61.2,29.72,ESE,117,6.0,9.0,88,0.00,,,0.01,WeatherCatV1.20B785,2013-07-23 09:56:00,
2013-07-23 11:01:00,64.6,61.0,29.71,SE,140,4.0,7.0,88,0.00,,,0.02,WeatherCatV1.20B785,2013-07-23 10:01:00,
2013-07-23 11:06:00,64.5,61.2,29.72,ESE,118,4.0,7.0,89,0.00,,,0.02,WeatherCatV1.20B785,2013-07-23 10:06:00,
2013-07-23 11:11:00,64.3,61.3,29.71,SSE,165,3.0,4.0,90,0.00,,,0.02,WeatherCatV1.20B785,2013-07-23 10:11:00,
2013-07-23 11:16:00,64.3,61.3,29.71,SE,129,2.0,4.0,90,0.03,,,0.02,WeatherCatV1.20B785,2013-07-23 10:16:00,
2013-07-23 11:21:00,64.3,61.3,29.71,SSE,150,4.0,5.0,90,0.03,,,0.02,WeatherCatV1.20B785,2013-07-23 10:21:00,
2013-07-23 11:26:00,64.1,61.1,29.71,SE,134,4.0,8.0,90,0.03,,,0.02,WeatherCatV1.20B785,2013-07-23 10:26:00,
2013-07-23 11:31:00,64.0,61.0,29.71,SSE,163,4.0,6.0,90,0.03,,,0.03,WeatherCatV1.20B785,2013-07-23 10:31:00,
2013-07-23 11:36:00,64.0,61.3,29.71,SE,139,2.0,3.0,91,0.03,,,0.03,WeatherCatV1.20B785,2013-07-23 10:36:00,
2013-07-23 11:41:00,63.9,61.2,29.71,SSE,165,4.0,5.0,91,0.05,,,0.04,WeatherCatV1.20B785,2013-07-23 10:41:00,
2013-07-23 11:46:00,63.8,61.1,29.70,SE,136,2.0,3.0,91,0.05,,,0.04,WeatherCatV1.20B785,2013-07-23 10:46:00,
2013-07-23 11:51:00,64.1,61.7,29.70,SE,134,3.0,4.0,92,0.04,,,0.04,WeatherCatV1.20B785,2013-07-23 10:51:00,
2013-07-23 11:56:00,64.0,61.3,29.70,SSE,162,4.0,6.0,91,0.03,,,0.04,WeatherCatV1.20B785,2013-07-23 10:56:00,
2013-07-23 12:01:00,64.2,61.5,29.70,SSE,148,1.0,4.0,91,0.00,,,0.05,WeatherCatV1.20B785,2013-07-23 11:01:00,
2013-07-23 12:06:00,64.5,61.8,29.70,South,190,5.0,8.0,91,0.00,,,0.05,WeatherCatV1.20B785,2013-07-23 11:06:00,
2013-07-23 12:11:00,64.6,61.6,29.71,SSE,163,8.0,8.0,90,0.00,,,0.05,WeatherCatV1.20B785,2013-07-23 11:11:00,
2013-07-23 12:16:00,64.6,61.6,29.71,SE,139,5.0,11.0,90,0.00,,,0.05,WeatherCatV1.20B785,2013-07-23 11:16:00,
2013-07-23 12:21:00,65.2,62.2,29.71,East,100,3.0,7.0,90,0.00,,,0.05,WeatherCatV1.20B785,2013-07-23 11:21:00,
2013-07-23 12:26:00,65.4,62.4,29.71,SE,131,4.0,11.0,90,0.00,,,0.05,WeatherCatV1.20B785,2013-07-23 11:26:00,
2013-07-23 12:31:00,65.5,62.5,29.70,SSE,155,8.0,12.0,90,0.00,,,0.05,WeatherCatV1.20B785,2013-07-23 11:31:00,
2013-07-23 12:36:00,65.5,62.2,29.70,SE,129,8.0,9.0,89,0.00,,,0.05,WeatherCatV1.20B785,2013-07-23 11:36:00,
2013-07-23 12:41:00,66.0,62.7,29.70,ESE,121,7.0,9.0,89,0.00,,,0.05,WeatherCatV1.20B785,2013-07-23 11:41:00,
2013-07-23 12:46:00,66.6,62.9,29.70,ESE,110,5.0,7.0,88,0.00,,,0.05,WeatherCatV1.20B785,2013-07-23 11:46:00,
2013-07-23 12:51:00,66.9,62.9,29.70,SSE,165,4.0,8.0,87,0.00,,,0.05,WeatherCatV1.20B785,2013-07-23 11:51:00,
2013-07-23 12:56:00,67.1,63.1,29.70,SSW,210,5.0,7.0,87,0.00,,,0.05,WeatherCatV1.20B785,2013-07-23 11:56:00,
2013-07-23 13:01:00,67.4,63.1,29.70,South,169,9.0,9.0,86,0.00,,,0.05,WeatherCatV1.20B785,2013-07-23 12:01:00,
2013-07-23 13:06:00,67.6,62.2,29.70,SSE,153,8.0,10.0,83,0.00,,,0.05,WeatherCatV1.20B785,2013-07-23 12:06:00,
2013-07-23 13:11:00,67.9,62.5,29.70,South,173,7.0,9.0,83,0.00,,,0.05,WeatherCatV1.20B785,2013-07-23 12:11:00,
2013-07-23 13:16:00,68.3,62.2,29.70,SE,141,5.0,7.0,81,0.00,,,0.05,WeatherCatV1.20B785,2013-07-23 12:16:00,
2013-07-23 13:21:00,68.1,62.0,29.70,SSE,158,8.0,10.0,81,0.00,,,0.05,WeatherCatV1.20B785,2013-07-23 12:21:00,
2013-07-23 13:26:00,67.9,61.5,29.70,South,173,5.0,8.0,80,0.00,,,0.05,WeatherCatV1.20B785,2013-07-23 12:26:00,
2013-07-23 13:31:00,68.0,61.6,29.70,SE,144,5.0,8.0,80,0.00,,,0.05,WeatherCatV1.20B785,2013-07-23 12:31:00,
2013-07-23 13:36:00,68.1,61.7,29.70,SSW,208,6.0,7.0,80,0.00,,,0.05,WeatherCatV1.20B785,2013-07-23 12:36:00,
2013-07-23 13:41:00,68.5,61.7,29.70,SSW,210,5.0,10.0,79,0.00,,,0.05,WeatherCatV1.20B785,2013-07-23 12:41:00,
2013-07-23 13:46:00,68.5,61.7,29.70,SW,226,4.0,6.0,79,0.00,,,0.05,WeatherCatV1.20B785,2013-07-23 12:46:00,
2013-07-23 13:51:00,68.8,62.0,29.70,SSE,158,5.0,7.0,79,0.00,,,0.05,WeatherCatV1.20B785,2013-07-23 12:51:00,
2013-07-23 13:56:00,69.9,63.1,29.69,ESE,112,5.0,6.0,79,0.00,,,0.05,WeatherCatV1.20B785,2013-07-23 12:56:00,
2013-07-23 14:01:00,70.0,62.5,29.69,SE,139,5.0,9.0,77,0.00,,,0.05,WeatherCatV1.20B785,2013-07-23 13:01:00,
2013-07-23 14:06:00,70.1,62.2,29.69,South,174,5.0,10.0,76,0.00,,,0.05,WeatherCatV1.20B785,2013-07-23 13:06:00,
2013-07-23 14:11:00,70.6,61.5,29.69,SSE,162,4.0,7.0,73,0.00,,,0.05,WeatherCatV1.20B785,2013-07-23 13:11:00,
2013-07-23 14:16:00,71.1,62.0,29.69,SE,138,7.0,7.0,73,0.00,,,0.05,WeatherCatV1.20B785,2013-07-23 13:16:00,
2013-07-23 14:21:00,71.0,61.5,29.69,South,181,4.0,7.0,72,0.00,,,0.05,WeatherCatV1.20B785,2013-07-23 13:21:00,
2013-07-23 14:26:00,70.6,61.1,29.69,ESE,120,4.0,9.0,72,0.00,,,0.05,WeatherCatV1.20B785,2013-07-23 13:26:00,
2013-07-23 14:31:00,70.5,61.4,29.69,South,169,5.0,7.0,73,0.00,,,0.05,WeatherCatV1.20B785,2013-07-23 13:31:00,
2013-07-23 14:36:00,70.8,61.7,29.68,SE,124,3.0,6.0,73,0.00,,,0.05,WeatherCatV1.20B785,2013-07-23 13:36:00,
2013-07-23 14:41:00,70.9,61.8,29.68,South,170,5.0,6.0,73,0.00,,,0.05,WeatherCatV1.20B785,2013-07-23 13:41:00,
2013-07-23 14:46:00,71.0,61.1,29.68,SE,139,4.0,8.0,71,0.00,,,0.05,WeatherCatV1.20B785,2013-07-23 13:46:00,
2013-07-23 14:51:00,71.6,61.7,29.68,South,169,5.0,7.0,71,0.00,,,0.05,WeatherCatV1.20B785,2013-07-23 13:51:00,
2013-07-23 14:56:00,71.0,60.7,29.68,SE,142,5.0,8.0,70,0.00,,,0.05,WeatherCatV1.20B785,2013-07-23 13:56:00,
2013-07-23 15:01:00,70.3,60.4,29.67,SE,143,6.0,8.0,71,0.00,,,0.05,WeatherCatV1.20B785,2013-07-23 14:01:00,
2013-07-23 15:06:00,70.1,61.0,29.67,SSE,168,3.0,8.0,73,0.00,,,0.05,WeatherCatV1.20B785,2013-07-23 14:06:00,
2013-07-23 15:11:00,70.3,61.2,29.67,SSE,153,4.0,9.0,73,0.00,,,0.05,WeatherCatV1.20B785,2013-07-23 14:11:00,
2013-07-23 15:16:00,70.4,61.3,29.67,SE,124,7.0,7.0,73,0.00,,,0.05,WeatherCatV1.20B785,2013-07-23 14:16:00,
2013-07-23 15:21:00,69.8,60.3,29.68,SW,222,11.0,22.0,72,0.00,,,0.05,WeatherCatV1.20B785,2013-07-23 14:21:00,
2013-07-23 15:26:00,66.9,59.8,29.69,SSW,197,8.0,10.0,78,3.63,,,0.17,WeatherCatV1.20B785,2013-07-23 14:26:00,
2013-07-23 15:31:00,63.7,57.1,29.69,South,181,9.0,12.0,79,0.57,,,0.36,WeatherCatV1.20B785,2013-07-23 14:31:00,
2013-07-23 15:36:00,62.1,56.9,29.69,SW,214,3.0,7.0,83,1.07,,,0.44,WeatherCatV1.20B785,2013-07-23 14:36:00,
2013-07-23 15:41:00,61.3,57.1,29.69,WSW,243,2.0,5.0,86,0.14,,,0.46,WeatherCatV1.20B785,2013-07-23 14:41:00,
2013-07-23 15:46:00,60.8,56.9,29.68,SE,136,1.0,2.0,87,0.19,,,0.48,WeatherCatV1.20B785,2013-07-23 14:46:00,
2013-07-23 15:51:00,60.5,56.6,29.69,SW,222,4.0,4.0,87,0.06,,,0.48,WeatherCatV1.20B785,2013-07-23 14:51:00,
2013-07-23 15:56:00,60.7,58.0,29.70,South,184,4.0,9.0,91,0.77,,,0.61,WeatherCatV1.20B785,2013-07-23 14:56:00,
2013-07-23 16:01:00,60.8,58.8,29.69,SW,221,8.0,8.0,93,0.69,,,0.71,WeatherCatV1.20B785,2013-07-23 15:01:00,
2013-07-23 16:06:00,61.1,59.4,29.68,SSE,165,3.0,6.0,94,0.10,,,0.72,WeatherCatV1.20B785,2013-07-23 15:06:00,
2013-07-23 16:11:00,61.5,59.8,29.69,SSE,150,3.0,4.0,94,0.06,,,0.72,WeatherCatV1.20B785,2013-07-23 15:11:00,
2013-07-23 16:16:00,61.9,60.2,29.68,SSE,149,2.0,3.0,94,0.10,,,0.73,WeatherCatV1.20B785,2013-07-23 15:16:00,
2013-07-23 16:21:00,62.2,60.5,29.68,WSW,249,1.0,1.0,94,0.05,,,0.73,WeatherCatV1.20B785,2013-07-23 15:21:00,
2013-07-23 16:26:00,62.5,60.4,29.68,WSW,253,1.0,1.0,93,0.03,,,0.73,WeatherCatV1.20B785,2013-07-23 15:26:00,
2013-07-23 16:31:00,62.9,60.8,29.68,SW,217,4.0,5.0,93,0.00,,,0.73,WeatherCatV1.20B785,2013-07-23 15:31:00,
2013-07-23 16:36:00,63.4,60.7,29.68,SSE,155,7.0,7.0,91,0.00,,,0.73,WeatherCatV1.20B785,2013-07-23 15:36:00,
2013-07-23 16:41:00,64.1,61.4,29.68,South,173,6.0,7.0,91,0.00,,,0.73,WeatherCatV1.20B785,2013-07-23 15:41:00,
2013-07-23 16:46:00,64.8,61.8,29.68,South,169,7.0,9.0,90,0.00,,,0.73,WeatherCatV1.20B785,2013-07-23 15:46:00,
2013-07-23 16:51:00,65.5,62.5,29.68,SW,226,5.0,6.0,90,0.00,,,0.73,WeatherCatV1.20B785,2013-07-23 15:51:00,
2013-07-23 16:56:00,66.1,62.8,29.68,SSE,160,4.0,6.0,89,0.00,,,0.73,WeatherCatV1.20B785,2013-07-23 15:56:00,
2013-07-23 17:01:00,66.2,62.2,29.68,SSE,157,6.0,11.0,87,0.00,,,0.73,WeatherCatV1.20B785,2013-07-23 16:01:00,
2013-07-23 17:06:00,66.5,62.8,29.68,SSW,207,5.0,8.0,88,0.00,,,0.73,WeatherCatV1.20B785,2013-07-23 16:06:00,
2013-07-23 17:11:00,67.0,63.3,29.67,SSW,205,8.0,8.0,88,0.00,,,0.73,WeatherCatV1.20B785,2013-07-23 16:11:00,
2013-07-23 17:16:00,67.3,62.3,29.67,South,170,8.0,11.0,84,0.00,,,0.73,WeatherCatV1.20B785,2013-07-23 16:16:00,
2013-07-23 17:21:00,68.0,62.6,29.67,SSE,158,7.0,8.0,83,0.00,,,0.73,WeatherCatV1.20B785,2013-07-23 16:21:00,
2013-07-23 17:26:00,68.4,62.7,29.68,South,191,5.0,11.0,82,0.00,,,0.73,WeatherCatV1.20B785,2013-07-23 16:26:00,
2013-07-23 17:31:00,68.4,63.0,29.68,SW,214,6.0,11.0,83,0.00,,,0.73,WeatherCatV1.20B785,2013-07-23 16:31:00,
2013-07-23 17:36:00,68.5,62.4,29.68,SSE,153,6.0,11.0,81,0.00,,,0.73,WeatherCatV1.20B785,2013-07-23 16:36:00,
2013-07-23 17:41:00,68.2,61.8,29.68,SSE,163,6.0,9.0,80,0.00,,,0.73,WeatherCatV1.20B785,2013-07-23 16:41:00,
2013-07-23 17:46:00,68.1,62.0,29.67,SE,144,7.0,8.0,81,0.00,,,0.73,WeatherCatV1.20B785,2013-07-23 16:46:00,
2013-07-23 17:51:00,67.8,61.8,29.67,SSE,167,5.0,8.0,81,0.00,,,0.73,WeatherCatV1.20B785,2013-07-23 16:51:00,
2013-07-23 17:56:00,67.6,61.5,29.67,SSW,202,5.0,7.0,81,0.00,,,0.73,WeatherCatV1.20B785,2013-07-23 16:56:00,
2013-07-23 18:01:00,67.3,60.5,29.67,SW,228,4.0,7.0,79,0.00,,,0.73,WeatherCatV1.20B785,2013-07-23 17:01:00,
2013-07-23 18:06:00,67.0,60.3,29.67,SW,215,6.0,6.0,79,0.00,,,0.73,WeatherCatV1.20B785,2013-07-23 17:06:00,
2013-07-23 18:11:00,67.0,60.3,29.67,SSW,208,3.0,5.0,79,0.00,,,0.73,WeatherCatV1.20B785,2013-07-23 17:11:00,
2013-07-23 18:16:00,67.1,60.4,29.67,SSW,210,7.0,8.0,79,0.00,,,0.73,WeatherCatV1.20B785,2013-07-23 17:16:00,
2013-07-23 18:21:00,67.2,60.8,29.67,WSW,250,8.0,10.0,80,0.00,,,0.73,WeatherCatV1.20B785,2013-07-23 17:21:00,
2013-07-23 18:26:00,67.6,60.5,29.67,SSW,212,9.0,11.0,78,0.00,,,0.73,WeatherCatV1.20B785,2013-07-23 17:26:00,
2013-07-23 18:31:00,68.0,60.9,29.67,SSW,197,4.0,8.0,78,0.00,,,0.73,WeatherCatV1.20B785,2013-07-23 17:31:00,
2013-07-23 18:36:00,68.5,61.4,29.67,SW,235,5.0,8.0,78,0.00,,,0.73,WeatherCatV1.20B785,2013-07-23 17:36:00,
2013-07-23 18:41:00,68.5,61.0,29.67,SW,236,6.0,7.0,77,0.00,,,0.73,WeatherCatV1.20B785,2013-07-23 17:41:00,
2013-07-23 18:46:00,68.4,61.3,29.67,SW,231,6.0,9.0,78,0.00,,,0.73,WeatherCatV1.20B785,2013-07-23 17:46:00,
2013-07-23 18:51:00,68.1,61.0,29.67,SW,232,6.0,8.0,78,0.00,,,0.73,WeatherCatV1.20B785,2013-07-23 17:51:00,
2013-07-23 18:56:00,68.1,61.0,29.67,WSW,249,5.0,10.0,78,0.00,,,0.73,WeatherCatV1.20B785,2013-07-23 17:56:00,
2013-07-23 19:01:00,68.0,60.9,29.67,SW,219,7.0,7.0,78,0.00,,,0.73,WeatherCatV1.20B785,2013-07-23 18:01:00,
2013-07-23 19:06:00,67.8,61.8,29.67,WSW,239,5.0,6.0,81,0.00,,,0.73,WeatherCatV1.20B785,2013-07-23 18:06:00,
2013-07-23 19:11:00,67.0,61.7,29.67,SW,217,5.0,5.0,83,0.00,,,0.73,WeatherCatV1.20B785,2013-07-23 18:11:00,
2013-07-23 19:16:00,66.6,61.6,29.67,South,181,5.0,7.0,84,0.00,,,0.74,WeatherCatV1.20B785,2013-07-23 18:16:00,
2013-07-23 19:21:00,66.0,61.0,29.67,SW,226,3.0,6.0,84,0.13,,,0.75,WeatherCatV1.20B785,2013-07-23 18:21:00,
2013-07-23 19:26:00,65.6,61.0,29.67,SW,219,4.0,6.0,85,0.06,,,0.75,WeatherCatV1.20B785,2013-07-23 18:26:00,
2013-07-23 19:31:00,65.5,61.8,29.67,SSE,166,3.0,5.0,88,0.04,,,0.75,WeatherCatV1.20B785,2013-07-23 18:31:00,
2013-07-23 19:36:00,65.7,61.4,29.67,SSW,203,3.0,6.0,86,0.00,,,0.75,WeatherCatV1.20B785,2013-07-23 18:36:00,
2013-07-23 19:41:00,65.9,61.9,29.67,SW,217,4.0,6.0,87,0.00,,,0.75,WeatherCatV1.20B785,2013-07-23 18:41:00,
2013-07-23 19:46:00,65.9,61.9,29.67,SW,225,2.0,5.0,87,0.00,,,0.75,WeatherCatV1.20B785,2013-07-23 18:46:00,
2013-07-23 19:51:00,66.5,62.5,29.68,SSW,203,2.0,4.0,87,0.00,,,0.75,WeatherCatV1.20B785,2013-07-23 18:51:00,
2013-07-23 19:56:00,66.4,61.4,29.68,South,187,3.0,5.0,84,0.00,,,0.75,WeatherCatV1.20B785,2013-07-23 18:56:00,
2013-07-23 20:01:00,66.6,61.9,29.67,South,180,3.0,4.0,85,0.00,,,0.75,WeatherCatV1.20B785,2013-07-23 19:01:00,
2013-07-23 20:06:00,66.2,60.9,29.67,SSW,213,2.0,4.0,83,0.00,,,0.75,WeatherCatV1.20B785,2013-07-23 19:06:00,
2013-07-23 20:11:00,66.0,61.0,29.68,SSE,156,3.0,4.0,84,0.00,,,0.75,WeatherCatV1.20B785,2013-07-23 19:11:00,
2013-07-23 20:16:00,65.9,61.3,29.68,SE,145,3.0,4.0,85,0.00,,,0.75,WeatherCatV1.20B785,2013-07-23 19:16:00,
2013-07-23 20:21:00,65.5,60.5,29.68,SE,125,4.0,4.0,84,0.00,,,0.75,WeatherCatV1.20B785,2013-07-23 19:21:00,
2013-07-23 20:26:00,65.2,60.6,29.68,SE,143,1.0,4.0,85,0.00,,,0.75,WeatherCatV1.20B785,2013-07-23 19:26:00,
2013-07-23 20:31:00,65.1,60.8,29.68,SE,128,2.0,4.0,86,0.00,,,0.75,WeatherCatV1.20B785,2013-07-23 19:31:00,
2013-07-23 20:36:00,65.0,61.0,29.68,ESE,114,4.0,4.0,87,0.00,,,0.75,WeatherCatV1.20B785,2013-07-23 19:36:00,
2013-07-23 20:41:00,64.9,60.9,29.68,South,172,2.0,5.0,87,0.00,,,0.75,WeatherCatV1.20B785,2013-07-23 19:41:00,
2013-07-23 20:46:00,64.8,61.2,29.68,SSW,210,3.0,5.0,88,0.00,,,0.75,WeatherCatV1.20B785,2013-07-23 19:46:00,
2013-07-23 20:51:00,64.5,61.2,29.68,West,262,0.0,2.0,89,0.00,,,0.75,WeatherCatV1.20B785,2013-07-23 19:51:00,
2013-07-23 20:56:00,64.2,61.2,29.68,West,263,0.0,1.0,90,0.00,,,0.75,WeatherCatV1.20B785,2013-07-23 19:56:00,
2013-07-23 21:01:00,63.9,60.9,29.68,West,277,2.0,4.0,90,0.00,,,0.75,WeatherCatV1.20B785,2013-07-23 20:01:00,
2013-07-23 21:06:00,63.7,61.0,29.68,West,277,1.0,3.0,91,0.00,,,0.75,WeatherCatV1.20B785,2013-07-23 20:06:00,
2013-07-23 21:11:00,63.5,60.8,29.68,WNW,284,2.0,3.0,91,0.00,,,0.76,WeatherCatV1.20B785,2013-07-23 20:11:00,
2013-07-23 21:16:00,63.3,60.6,29.68,West,270,1.0,3.0,91,0.08,,,0.76,WeatherCatV1.20B785,2013-07-23 20:16:00,
2013-07-23 21:21:00,63.2,60.5,29.68,WSW,243,0.0,2.0,91,0.15,,,0.77,WeatherCatV1.20B785,2013-07-23 20:21:00,
2013-07-23 21:26:00,63.1,60.7,29.69,SW,225,1.0,2.0,92,0.06,,,0.77,WeatherCatV1.20B785,2013-07-23 20:26:00,
2013-07-23 21:31:00,63.1,60.7,29.69,SW,236,2.0,2.0,92,0.05,,,0.78,WeatherCatV1.20B785,2013-07-23 20:31:00,
2013-07-23 21:36:00,62.9,60.5,29.68,WSW,239,0.0,2.0,92,0.05,,,0.78,WeatherCatV1.20B785,2013-07-23 20:36:00,
2013-07-23 21:41:00,62.8,60.7,29.68,WSW,250,1.0,2.0,93,0.04,,,0.78,WeatherCatV1.20B785,2013-07-23 20:41:00,
2013-07-23 21:46:00,62.4,60.3,29.68,WSW,257,0.0,0.0,93,0.00,,,0.78,WeatherCatV1.20B785,2013-07-23 20:46:00,
2013-07-23 21:51:00,62.3,60.2,29.69,WSW,257,0.0,0.0,93,0.00,,,0.78,WeatherCatV1.20B785,2013-07-23 20:51:00,
2013-07-23 21:56:00,62.3,60.5,29.68,WSW,257,0.0,0.0,94,0.00,,,0.78,WeatherCatV1.20B785,2013-07-23 20:56:00,
2013-07-23 22:01:00,62.4,60.7,29.69,SE,135,0.0,1.0,94,0.00,,,0.78,WeatherCatV1.20B785,2013-07-23 21:01:00,
2013-07-23 22:06:00,62.4,60.7,29.69,SE,126,0.0,1.0,94,0.00,,,0.78,WeatherCatV1.20B785,2013-07-23 21:06:00,
2013-07-23 22:11:00,62.5,60.8,29.69,SE,126,0.0,1.0,94,0.00,,,0.78,WeatherCatV1.20B785,2013-07-23 21:11:00,
2013-07-23 22:16:00,62.4,60.7,29.69,SE,126,0.0,0.0,94,0.00,,,0.78,WeatherCatV1.20B785,2013-07-23 21:16:00,
2013-07-23 22:21:00,62.3,60.5,29.68,SE,126,0.0,0.0,94,0.00,,,0.78,WeatherCatV1.20B785,2013-07-23 21:21:00,
2013-07-23 22:26:00,62.3,60.5,29.68,SE,125,0.0,0.0,94,0.00,,,0.78,WeatherCatV1.20B785,2013-07-23 21:26:00,
2013-07-23 22:31:00,62.3,60.8,29.68,SE,126,0.0,0.0,95,0.00,,,0.78,WeatherCatV1.20B785,2013-07-23 21:31:00,
2013-07-23 22:36:00,62.3,60.8,29.69,SE,125,0.0,0.0,95,0.00,,,0.78,WeatherCatV1.20B785,2013-07-23 21:36:00,
2013-07-23 22:41:00,62.3,60.8,29.68,SE,125,0.0,0.0,95,0.00,,,0.78,WeatherCatV1.20B785,2013-07-23 21:41:00,
2013-07-23 22:46:00,62.3,60.8,29.68,SE,126,0.0,1.0,95,0.00,,,0.78,WeatherCatV1.20B785,2013-07-23 21:46:00,
2013-07-23 22:51:00,62.3,60.8,29.68,SE,124,1.0,1.0,95,0.00,,,0.78,WeatherCatV1.20B785,2013-07-23 21:51:00,
2013-07-23 22:56:00,62.3,60.8,29.68,SE,125,1.0,2.0,95,0.00,,,0.78,WeatherCatV1.20B785,2013-07-23 21:56:00,
2013-07-23 23:01:00,62.2,60.8,29.68,SE,128,1.0,2.0,95,0.00,,,0.78,WeatherCatV1.20B785,2013-07-23 22:01:00,
2013-07-23 23:06:00,62.3,60.8,29.68,ESE,110,2.0,2.0,95,0.00,,,0.78,WeatherCatV1.20B785,2013-07-23 22:06:00,
2013-07-23 23:11:00,62.3,60.8,29.68,ESE,117,1.0,1.0,95,0.00,,,0.78,WeatherCatV1.20B785,2013-07-23 22:11:00,
2013-07-23 23:16:00,62.3,60.5,29.68,SE,124,1.0,2.0,94,0.00,,,0.78,WeatherCatV1.20B785,2013-07-23 22:16:00,
2013-07-23 23:21:00,62.2,60.5,29.68,ESE,118,1.0,1.0,94,0.00,,,0.78,WeatherCatV1.20B785,2013-07-23 22:21:00,
2013-07-23 23:26:00,62.1,60.3,29.68,ESE,111,0.0,1.0,94,0.00,,,0.78,WeatherCatV1.20B785,2013-07-23 22:26:00,
2013-07-23 23:31:00,62.1,60.7,29.68,ESE,111,0.0,0.0,95,0.00,,,0.78,WeatherCatV1.20B785,2013-07-23 22:31:00,
2013-07-23 23:36:00,62.1,60.7,29.68,SE,127,2.0,3.0,95,0.00,,,0.78,WeatherCatV1.20B785,2013-07-23 22:36:00,
2013-07-23 23:41:00,62.3,60.8,29.68,ESE,114,1.0,3.0,95,0.00,,,0.78,WeatherCatV1.20B785,2013-07-23 22:41:00,
2013-07-23 23:46:00,62.3,60.8,29.68,ESE,117,3.0,3.0,95,0.00,,,0.78,WeatherCatV1.20B785,2013-07-23 22:46:00,
2013-07-23 23:51:00,62.4,61.0,29.68,ESE,117,3.0,3.0,95,0.00,,,0.78,WeatherCatV1.20B785,2013-07-23 22:51:00,
2013-07-23 23:56:00,62.4,61.0,29.68,ESE,117,2.0,4.0,95,0.00,,,0.78,WeatherCatV1.20B785,2013-07-23 22:56:00,